Time;durP1;ratioP1;P1;durP2;ratioP2;P2;SDS_P1;SDS_P2;PMS_P1;PMS_P2;Temp;Humidity;BMP_temperature;BMP_pressure;BME280_temperature;BME280_humidity;BME280_pressure;Samples;Min_cycle;Max_cycle;Signal;HPM_P1;HPM_P2
2021/01/28 00:01:58;;;;;;;18.92;12.90;;;;;;;3.93;100.00;99925.16;5224256;28;20021;-81
2021/01/28 00:04:28;;;;;;;18.33;13.10;;;;;;;3.76;100.00;99929.81;5223504;28;20032;-81
2021/01/28 00:06:59;;;;;;;19.23;13.88;;;;;;;3.71;100.00;99921.31;5223645;28;20031;-81
2021/01/28 00:09:29;;;;;;;20.92;14.63;;;;;;;3.66;100.00;99915.38;5224349;28;20099;-80
2021/01/28 00:11:59;;;;;;;21.58;14.57;;;;;;;3.78;100.00;99911.69;5223732;28;20403;-80
2021/01/28 00:14:29;;;;;;;20.88;14.32;;;;;;;3.77;100.00;99908.25;5224188;28;20104;-81
2021/01/28 00:17:00;;;;;;;17.63;13.05;;;;;;;3.82;100.00;99906.41;5223321;28;20020;-81
2021/01/28 00:19:30;;;;;;;21.33;14.70;;;;;;;3.77;100.00;99900.50;5224114;28;20029;-81
2021/01/28 00:22:00;;;;;;;20.02;14.90;;;;;;;3.81;100.00;99904.72;5223094;28;20048;-81
2021/01/28 00:24:31;;;;;;;19.58;14.35;;;;;;;3.79;100.00;99911.66;5223318;28;20104;-82
2021/01/28 00:27:02;;;;;;;21.13;14.90;;;;;;;3.83;100.00;99909.88;5223838;28;20029;-82
2021/01/28 00:29:33;;;;;;;20.92;15.10;;;;;;;3.74;100.00;99908.31;5223238;28;20523;-80
2021/01/28 00:32:03;;;;;;;22.85;16.13;;;;;;;3.72;100.00;99907.50;5222257;28;20036;-81
2021/01/28 00:34:34;;;;;;;21.05;15.85;;;;;;;3.78;100.00;99898.78;5221846;28;20020;-81
2021/01/28 00:37:04;;;;;;;21.70;15.70;;;;;;;3.82;100.00;99903.84;5224464;28;20031;-81
2021/01/28 00:39:34;;;;;;;20.50;15.35;;;;;;;3.78;100.00;99898.78;5223580;28;20108;-81
2021/01/28 00:42:05;;;;;;;19.95;14.95;;;;;;;3.74;100.00;99902.28;5222795;28;20024;-81
2021/01/28 00:44:35;;;;;;;20.95;14.90;;;;;;;3.80;100.00;99891.84;5223121;28;20036;-81
2021/01/28 00:47:05;;;;;;;22.10;15.23;;;;;;;3.85;100.00;99882.25;5227274;28;20279;-81
2021/01/28 00:49:35;;;;;;;23.35;15.13;;;;;;;3.96;100.00;99883.75;5223557;28;20036;-81
2021/01/28 00:52:06;;;;;;;23.98;14.95;;;;;;;3.96;100.00;99878.59;5223179;28;20028;-81
2021/01/28 00:54:36;;;;;;;21.10;14.73;;;;;;;3.92;100.00;99876.94;5223711;28;20502;-81
2021/01/28 00:57:06;;;;;;;21.13;15.18;;;;;;;3.85;100.00;99883.13;5223932;28;20029;-81
2021/01/28 00:59:36;;;;;;;22.90;16.00;;;;;;;3.81;100.00;99872.88;5223944;28;20029;-81
2021/01/28 01:02:07;;;;;;;22.70;16.17;;;;;;;3.78;100.00;99884.13;5222886;28;20714;-81
2021/01/28 01:04:37;;;;;;;23.02;15.25;;;;;;;3.81;100.00;99878.88;5222997;28;20537;-81
2021/01/28 01:07:07;;;;;;;23.17;16.50;;;;;;;3.84;100.00;99878.84;5213576;28;20086;-81
2021/01/28 01:09:37;;;;;;;21.70;16.17;;;;;;;3.83;100.00;99877.16;5215709;28;20029;-81
2021/01/28 01:12:08;;;;;;;23.48;15.73;;;;;;;3.93;100.00;99883.81;5222923;28;20173;-81
2021/01/28 01:14:39;;;;;;;22.40;15.75;;;;;;;3.92;100.00;99874.38;5223450;28;20029;-81
2021/01/28 01:17:09;;;;;;;21.48;15.68;;;;;;;3.87;100.00;99868.44;5226186;28;20581;-81
2021/01/28 01:19:40;;;;;;;22.23;15.65;;;;;;;3.92;100.00;99870.94;5226924;28;20053;-81
2021/01/28 01:22:10;;;;;;;22.90;16.48;;;;;;;3.88;100.00;99875.31;5227273;28;20063;-81
2021/01/28 01:24:40;;;;;;;23.80;16.33;;;;;;;3.83;100.00;99866.81;5226366;28;20060;-81
2021/01/28 01:27:11;;;;;;;22.58;16.58;;;;;;;3.99;100.00;99867.34;5227821;28;20029;-81
2021/01/28 01:29:41;;;;;;;24.80;17.48;;;;;;;3.98;100.00;99871.66;5228617;28;20028;-81
2021/01/28 01:32:11;;;;;;;24.05;18.10;;;;;;;3.94;100.00;99872.59;5227085;28;20108;-81
2021/01/28 01:34:41;;;;;;;26.23;18.30;;;;;;;4.01;100.00;99874.19;5227085;28;20029;-81
2021/01/28 01:37:12;;;;;;;27.40;19.88;;;;;;;3.98;100.00;99871.66;5226400;28;20127;-81
2021/01/28 01:39:42;;;;;;;28.95;19.33;;;;;;;4.04;100.00;99861.19;5226736;28;20056;-81
2021/01/28 01:42:12;;;;;;;28.50;20.73;;;;;;;3.96;100.00;99863.06;5227034;28;20060;-81
2021/01/28 01:44:42;;;;;;;26.35;19.63;;;;;;;3.95;100.00;99861.38;5226898;28;20025;-81
2021/01/28 01:47:42;;;;;;;27.60;19.15;;;;;;;3.91;100.00;99861.47;5226825;28;20039;-81
2021/01/28 01:50:34;;;;;;;29.02;20.08;;;;;;;3.92;100.00;99863.19;5226606;28;20025;-81
2021/01/28 01:53:10;;;;;;;26.75;19.58;;;;;;;3.95;100.00;99860.53;5226812;28;20025;-81
2021/01/28 01:55:45;;;;;;;25.92;18.38;;;;;;;4.10;100.00;99861.06;5227187;28;20021;-81
2021/01/28 01:58:25;;;;;;;27.20;19.27;;;;;;;4.15;100.00;99858.38;5227207;28;20109;-81
2021/01/28 02:00:55;;;;;;;29.55;19.13;;;;;;;4.01;100.00;99850.94;5226545;28;20106;-81
2021/01/28 02:03:30;;;;;;;28.08;19.48;;;;;;;3.97;100.00;99854.44;5225911;28;20949;-81
2021/01/28 02:06:14;;;;;;;25.63;18.67;;;;;;;4.04;100.00;99861.19;5226682;28;20040;-81
2021/01/28 02:08:46;;;;;;;25.40;18.80;;;;;;;3.99;100.00;99844.91;5227340;28;20383;-81
2021/01/28 02:11:17;;;;;;;28.13;19.75;;;;;;;3.95;100.00;99845.88;5225645;28;20036;-81
2021/01/28 02:13:49;;;;;;;27.83;18.95;;;;;;;3.99;100.00;99837.16;5226534;28;20012;-81
2021/01/28 02:16:22;;;;;;;24.83;18.92;;;;;;;4.05;100.00;99841.34;5227632;28;20392;-81
2021/01/28 02:18:55;;;;;;;28.45;20.08;;;;;;;3.94;100.00;99833.00;5227531;28;20033;-81
2021/01/28 02:21:29;;;;;;;24.95;18.67;;;;;;;4.01;100.00;99835.41;5227000;28;20033;-81
2021/01/28 02:24:09;;;;;;;25.88;18.30;;;;;;;4.06;100.00;99828.41;5225073;28;20061;-81
2021/01/28 02:26:46;;;;;;;26.15;18.77;;;;;;;3.97;100.00;99825.16;5226702;28;20106;-81
2021/01/28 02:29:17;;;;;;;26.88;18.77;;;;;;;3.96;100.00;99819.13;5225665;28;20117;-81
2021/01/28 02:31:50;;;;;;;27.73;19.60;;;;;;;3.93;100.00;99816.63;5225402;28;20031;-81
2021/01/28 02:34:22;;;;;;;31.85;19.42;;;;;;;4.07;100.00;99809.44;5223974;28;20029;-81
2021/01/28 02:36:54;;;;;;;26.73;19.25;;;;;;;4.00;100.00;99810.47;5224503;28;20028;-81
2021/01/28 02:39:27;;;;;;;26.92;19.20;;;;;;;3.93;100.00;99816.63;5225162;28;20124;-81
2021/01/28 02:42:22;;;;;;;30.88;20.15;;;;;;;3.98;100.00;99803.59;5225010;28;20510;-81
2021/01/28 02:44:52;;;;;;;32.05;20.05;;;;;;;3.98;100.00;99799.28;5225083;28;20079;-81
2021/01/28 02:47:23;;;;;;;29.63;20.30;;;;;;;3.93;100.00;99805.44;5225117;28;20082;-81
2021/01/28 02:49:53;;;;;;;30.80;20.20;;;;;;;4.03;100.00;99804.34;5225459;28;20031;-81
2021/01/28 02:52:23;;;;;;;27.02;19.02;;;;;;;4.24;100.00;99801.28;5225086;28;20027;-81
2021/01/28 02:54:54;;;;;;;27.10;18.58;;;;;;;4.32;100.00;99800.22;5224017;28;20117;-81
2021/01/28 02:57:24;;;;;;;25.92;18.42;;;;;;;4.40;100.00;99806.09;5224964;28;20040;-81
2021/01/28 02:59:54;;;;;;;27.45;18.30;;;;;;;4.31;100.00;99803.69;5225021;28;20033;-81
2021/01/28 03:02:24;;;;;;;26.75;18.42;;;;;;;4.19;100.00;99809.16;5224938;28;20021;-81
2021/01/28 03:04:55;;;;;;;31.17;19.52;;;;;;;4.07;100.00;99798.22;5224722;28;20070;-81
2021/01/28 03:07:25;;;;;;;29.35;19.83;;;;;;;4.19;100.00;99804.00;5224793;28;20032;-81
2021/01/28 03:09:55;;;;;;;30.70;19.63;;;;;;;4.09;100.00;99794.72;5224443;28;20089;-81
2021/01/28 03:12:25;;;;;;;28.77;19.58;;;;;;;4.08;100.00;99805.97;5224152;28;20040;-81
2021/01/28 03:14:57;;;;;;;32.22;20.30;;;;;;;4.04;100.00;99800.88;5224410;28;20459;-81
2021/01/28 03:17:27;;;;;;;33.20;21.60;;;;;;;4.22;100.00;99798.75;5223708;28;20029;-81
2021/01/28 03:19:57;;;;;;;28.80;20.27;;;;;;;4.21;100.00;99791.00;5224093;28;20037;-81
2021/01/28 03:22:27;;;;;;;30.73;20.35;;;;;;;4.19;100.00;99798.81;5224878;28;20039;-81
2021/01/28 03:24:58;;;;;;;29.60;19.67;;;;;;;4.21;100.00;99797.06;5226532;28;20415;-81
2021/01/28 03:27:28;;;;;;;32.28;20.02;;;;;;;4.15;100.00;99797.16;5229468;28;20029;-81
2021/01/28 03:29:58;;;;;;;31.30;20.42;;;;;;;4.13;100.00;99791.19;5224304;28;20031;-81
2021/01/28 03:32:28;;;;;;;30.40;19.45;;;;;;;4.25;100.00;99784.88;5223539;28;20027;-81
2021/01/28 03:34:59;;;;;;;31.65;20.45;;;;;;;4.19;100.00;99779.88;5223768;28;20537;-81
2021/01/28 03:37:29;;;;;;;34.47;22.15;;;;;;;4.12;100.00;99779.16;5222841;28;20687;-81
2021/01/28 03:40:00;;;;;;;32.78;21.92;;;;;;;4.12;100.00;99781.72;5222030;28;20028;-81
2021/01/28 03:42:30;;;;;;;32.92;21.40;;;;;;;4.12;100.00;99784.31;5223843;28;20283;-81
2021/01/28 03:45:00;;;;;;;33.78;20.77;;;;;;;4.06;100.00;99776.72;5223013;28;20083;-81
2021/01/28 03:47:31;;;;;;;32.70;21.13;;;;;;;4.02;100.00;99775.09;5227955;28;20101;-81
2021/01/28 03:50:01;;;;;;;33.88;20.58;;;;;;;4.11;100.00;99774.03;5224555;28;20075;-81
2021/01/28 03:52:32;;;;;;;37.17;22.02;;;;;;;4.06;100.00;99778.44;5224729;28;20472;-81
2021/01/28 03:55:03;;;;;;;35.30;21.38;;;;;;;4.07;100.00;99768.06;5223250;28;20086;-81
2021/01/28 03:57:34;;;;;;;32.38;20.17;;;;;;;4.12;100.00;99771.38;5224041;28;20037;-81
2021/01/28 04:00:08;;;;;;;37.58;21.50;;;;;;;4.10;100.00;99764.56;5224056;28;20036;-81
2021/01/28 04:02:38;;;;;;;34.22;21.65;;;;;;;4.13;100.00;99773.09;5223801;28;20056;-81
2021/01/28 04:05:10;;;;;;;32.67;20.52;;;;;;;4.09;100.00;99770.63;5228300;28;20396;-81
2021/01/28 04:07:40;;;;;;;37.95;21.30;;;;;;;4.07;100.00;99773.25;5223910;28;20160;-81
2021/01/28 04:10:13;;;;;;;32.33;20.23;;;;;;;4.17;100.00;99763.53;5224519;28;20025;-81
2021/01/28 04:12:44;;;;;;;35.22;20.25;;;;;;;4.15;100.00;99770.47;5224016;28;20033;-81
2021/01/28 04:15:15;;;;;;;34.50;19.92;;;;;;;4.16;100.00;99767.00;5223863;28;20032;-81
2021/01/28 04:17:46;;;;;;;33.42;20.10;;;;;;;4.23;100.00;99771.16;5223000;28;20055;-81
2021/01/28 04:20:20;;;;;;;35.53;19.95;;;;;;;4.45;100.00;99780.97;5223771;28;20033;-81
2021/01/28 04:22:50;;;;;;;29.80;18.00;;;;;;;4.43;100.00;99782.72;5221807;28;20025;-81
2021/01/28 04:25:21;;;;;;;32.25;20.00;;;;;;;4.56;100.00;99768.63;5221615;28;20040;-81
2021/01/28 04:27:53;;;;;;;36.30;20.30;;;;;;;4.53;100.00;99771.28;5223543;28;20032;-81
2021/01/28 04:30:28;;;;;;;34.80;20.27;;;;;;;4.48;100.00;99775.69;5222878;28;20488;-80
2021/01/28 04:32:59;;;;;;;34.88;20.10;;;;;;;4.41;100.00;99774.16;5221673;28;20044;-80
2021/01/28 04:35:29;;;;;;;35.70;20.23;;;;;;;4.60;100.00;99772.81;5221180;28;20032;-81
2021/01/28 04:38:00;;;;;;;36.00;21.08;;;;;;;4.59;100.00;99768.53;5222879;28;20388;-81
2021/01/28 04:41:02;;;;;;;35.45;19.90;;;;;;;4.70;100.00;99768.28;5220983;28;20036;-81
2021/01/28 04:43:33;;;;;;;33.47;20.08;;;;;;;4.58;100.00;99771.16;5222593;28;20108;-81
2021/01/28 04:46:06;;;;;;;34.42;19.65;;;;;;;4.54;100.00;99757.47;5221155;28;20092;-81
2021/01/28 04:48:36;;;;;;;34.92;19.80;;;;;;;4.42;100.00;99757.75;5222424;28;20036;-81
2021/01/28 04:51:08;;;;;;;35.95;19.15;;;;;;;4.43;100.00;99746.53;5223216;28;20025;-81
2021/01/28 04:53:52;;;;;;;37.22;20.48;;;;;;;4.33;100.00;99750.19;5225890;28;20018;-81
2021/01/28 04:56:26;;;;;;;39.70;20.88;;;;;;;4.29;100.00;99746.00;5228389;28;20032;-81
2021/01/28 04:59:08;;;;;;;37.35;20.08;;;;;;;4.27;100.00;99745.19;5226804;28;20078;-81
2021/01/28 05:01:38;;;;;;;36.65;20.58;;;;;;;4.22;100.00;99735.84;5225233;28;20040;-81
2021/01/28 05:04:12;;;;;;;40.63;21.15;;;;;;;4.21;100.00;99722.06;5225032;28;20382;-81
2021/01/28 05:06:43;;;;;;;41.97;21.58;;;;;;;4.18;100.00;99727.31;5226352;28;20083;-81
2021/01/28 05:09:14;;;;;;;38.53;19.90;;;;;;;4.25;100.00;99722.81;5225697;28;20033;-81
2021/01/28 05:11:56;;;;;;;38.30;20.55;;;;;;;4.25;100.00;99721.09;5225238;28;20076;-81
2021/01/28 05:14:29;;;;;;;37.75;20.52;;;;;;;4.19;100.00;99716.09;5224849;28;20029;-81
2021/01/28 05:17:04;;;;;;;39.22;20.65;;;;;;;4.20;100.00;99720.38;5226011;28;20029;-81
2021/01/28 05:19:46;;;;;;;39.15;20.52;;;;;;;4.21;100.00;99714.31;5225262;28;20067;-81
2021/01/28 05:22:26;;;;;;;36.35;19.73;;;;;;;4.23;100.00;99716.84;5223892;28;20048;-81
2021/01/28 05:25:31;;;;;;;38.45;20.30;;;;;;;4.18;100.00;99714.41;5224758;28;20060;-81
2021/01/28 05:28:38;;;;;;;35.20;19.05;;;;;;;4.17;100.00;99715.28;5222306;28;20037;-81
2021/01/28 05:31:16;;;;;;;40.45;19.42;;;;;;;4.17;100.00;99709.25;5224863;28;20063;-79
2021/01/28 05:33:46;;;;;;;40.25;20.80;;;;;;;4.17;100.00;99720.44;5224618;28;20051;-79
2021/01/28 05:36:22;;;;;;;36.70;19.10;;;;;;;4.39;100.00;99719.03;5225439;28;20048;-80
2021/01/28 05:38:55;;;;;;;35.55;19.17;;;;;;;4.35;100.00;99716.56;5231264;28;20074;-80
2021/01/28 05:41:34;;;;;;;34.05;19.65;;;;;;;4.37;100.00;99713.06;5227855;28;20028;-80
2021/01/28 05:44:13;;;;;;;33.60;18.55;;;;;;;4.30;100.00;99714.06;5225987;28;20503;-79
2021/01/28 05:46:59;;;;;;;37.38;20.05;;;;;;;4.22;100.00;99704.81;5222746;28;20534;-80
2021/01/28 05:49:30;;;;;;;38.05;19.67;;;;;;;4.21;100.00;99706.56;5228539;28;20024;-79
2021/01/28 05:52:15;;;;;;;33.22;19.02;;;;;;;4.34;100.00;99699.34;5228785;28;20040;-80
2021/01/28 05:55:02;;;;;;;33.42;18.30;;;;;;;4.40;100.00;99699.19;5228657;28;20024;-80
2021/01/28 05:57:53;;;;;;;35.70;18.65;;;;;;;4.27;100.00;99688.31;5227905;28;20045;-80
2021/01/28 06:00:49;;;;;;;32.90;17.85;;;;;;;4.24;100.00;99688.38;5228472;28;20448;-80
2021/01/28 06:03:49;;;;;;;37.10;19.05;;;;;;;4.30;100.00;99688.22;5221648;28;20052;-80
2021/01/28 06:06:54;;;;;;;35.83;19.20;;;;;;;4.27;100.00;99697.81;5226969;28;20494;-80
2021/01/28 06:09:32;;;;;;;36.45;19.33;;;;;;;4.37;100.00;99687.19;5222767;28;20035;-81
2021/01/28 06:12:25;;;;;;;36.83;18.73;;;;;;;4.27;100.00;99693.47;5228435;28;20557;-80
2021/01/28 06:15:14;;;;;;;30.63;18.00;;;;;;;4.37;100.00;99697.53;5227727;28;20499;-80
2021/01/28 06:18:15;;;;;;;32.20;16.75;;;;;;;4.64;100.00;99693.41;5227566;28;20112;-80
2021/01/28 06:21:00;;;;;;;25.48;16.00;;;;;;;4.56;100.00;99696.19;5227943;28;20557;-79
2021/01/28 06:23:55;;;;;;;32.50;17.40;;;;;;;4.44;100.00;99696.50;5227235;28;20083;-79
2021/01/28 06:26:31;;;;;;;29.98;17.02;;;;;;;4.52;100.00;99699.75;5228420;28;20021;-79
2021/01/28 06:29:20;;;;;;;27.08;15.80;;;;;;;4.34;100.00;99689.00;5227408;28;20020;-79
2021/01/28 06:32:08;;;;;;;29.42;15.50;;;;;;;4.29;100.00;99676.19;5228522;28;20474;-79
2021/01/28 06:34:57;;;;;;;28.63;16.35;;;;;;;4.24;100.00;99675.44;5228080;28;20033;-79
2021/01/28 06:37:36;;;;;;;28.00;15.75;;;;;;;4.20;100.00;99671.25;5227585;28;20033;-79
2021/01/28 06:40:12;;;;;;;27.92;16.38;;;;;;;4.19;100.00;99661.78;5227687;28;20028;-79
2021/01/28 06:42:54;;;;;;;31.90;17.00;;;;;;;4.18;100.00;99651.47;5227476;28;20029;-79
2021/01/28 06:45:31;;;;;;;29.77;16.85;;;;;;;4.13;100.00;99650.75;5226727;28;20029;-79
2021/01/28 06:48:02;;;;;;;34.05;18.60;;;;;;;4.08;100.00;99645.69;5226840;28;20024;-79
2021/01/28 06:50:51;;;;;;;32.13;17.40;;;;;;;4.13;100.00;99649.00;5227167;28;20028;-79
2021/01/28 06:53:39;;;;;;;29.02;16.60;;;;;;;4.08;100.00;99650.00;5227076;28;20279;-79
2021/01/28 06:56:32;;;;;;;29.98;16.73;;;;;;;4.07;100.00;99651.75;5226641;28;20597;-79
2021/01/28 06:59:32;;;;;;;32.47;17.35;;;;;;;4.01;100.00;99654.50;5228547;28;20045;-79
2021/01/28 07:02:29;;;;;;;28.88;16.80;;;;;;;4.18;100.00;99652.34;5230694;28;20035;-79
2021/01/28 07:05:12;;;;;;;34.08;17.90;;;;;;;4.17;100.00;99653.22;5228038;28;20021;-79
2021/01/28 07:07:53;;;;;;;30.23;16.65;;;;;;;4.17;100.00;99654.97;5228128;28;20032;-79
2021/01/28 07:10:34;;;;;;;30.20;16.95;;;;;;;4.17;100.00;99645.47;5228013;28;20041;-79
2021/01/28 07:13:09;;;;;;;32.75;17.90;;;;;;;4.23;100.00;99645.31;5227094;28;20017;-79
2021/01/28 07:15:46;;;;;;;30.20;16.50;;;;;;;4.19;100.00;99648.88;5223645;28;20364;-79
2021/01/28 07:18:26;;;;;;;33.15;17.65;;;;;;;4.15;100.00;99636.88;5223129;28;20039;-79
2021/01/28 07:21:03;;;;;;;28.75;16.63;;;;;;;4.26;100.00;99634.06;5226297;28;20036;-79
2021/01/28 07:23:33;;;;;;;28.67;16.73;;;;;;;4.35;100.00;99632.09;5226190;28;20036;-79
2021/01/28 07:26:10;;;;;;;31.80;17.08;;;;;;;4.25;100.00;99629.75;5226939;28;20021;-79
2021/01/28 07:28:43;;;;;;;23.95;15.55;;;;;;;4.39;100.00;99630.25;5227501;28;20032;-79
2021/01/28 07:31:43;;;;;;;30.40;16.30;;;;;;;4.40;100.00;99625.03;5226547;28;20375;-79
2021/01/28 07:34:15;;;;;;;24.25;15.02;;;;;;;4.28;100.00;99619.34;5227759;28;20055;-79
2021/01/28 07:36:51;;;;;;;27.10;16.52;;;;;;;4.25;100.00;99620.25;5226342;28;20053;-79
2021/01/28 07:39:30;;;;;;;25.83;15.38;;;;;;;4.36;100.00;99626.03;5227635;28;20579;-79
2021/01/28 07:42:25;;;;;;;29.77;17.23;;;;;;;4.28;100.00;99624.53;5226971;28;20166;-79
2021/01/28 07:44:57;;;;;;;28.00;14.70;;;;;;;4.47;100.00;99634.31;5226142;28;20580;-79
2021/01/28 07:47:31;;;;;;;24.67;15.90;;;;;;;4.48;100.00;99635.19;5225905;28;20033;-79
2021/01/28 07:50:26;;;;;;;24.83;15.05;;;;;;;4.51;100.00;99629.94;5227130;28;20040;-79
2021/01/28 07:53:17;;;;;;;26.10;15.15;;;;;;;4.45;100.00;99628.34;5227615;28;20021;-79
2021/01/28 07:55:47;;;;;;;22.77;14.50;;;;;;;4.47;100.00;99628.31;5226439;28;20043;-79
2021/01/28 07:58:23;;;;;;;26.92;15.40;;;;;;;4.66;100.00;99622.59;5226868;28;20491;-79
2021/01/28 08:00:55;;;;;;;22.65;14.50;;;;;;;4.79;100.00;99625.72;5224618;28;20039;-79
2021/01/28 08:03:43;;;;;;;22.50;14.45;;;;;;;4.64;100.00;99619.22;5223031;28;20028;-79
2021/01/28 08:06:15;;;;;;;21.73;14.00;;;;;;;4.47;100.00;99620.56;5222869;28;20741;-79
2021/01/28 08:08:45;;;;;;;21.88;14.43;;;;;;;4.53;100.00;99623.84;5222543;28;20032;-79
2021/01/28 08:11:20;;;;;;;27.45;14.95;;;;;;;4.69;100.00;99616.50;5221781;28;20028;-79
2021/01/28 08:13:55;;;;;;;25.73;14.70;;;;;;;4.68;100.00;99623.44;5222250;28;20479;-79
2021/01/28 08:16:26;;;;;;;21.80;13.95;;;;;;;4.73;100.00;99610.34;5220807;28;20116;-79
2021/01/28 08:19:03;;;;;;;21.48;13.57;;;;;;;4.64;100.00;99608.84;5219942;28;20558;-79
2021/01/28 08:21:33;;;;;;;24.30;14.50;;;;;;;4.55;100.00;99605.66;5225753;28;20033;-79
2021/01/28 08:24:15;;;;;;;22.10;14.65;;;;;;;4.83;100.00;99591.09;5223472;28;20040;-81
2021/01/28 08:26:45;;;;;;;21.35;13.73;;;;;;;4.93;100.00;99598.56;5222518;28;20051;-79
2021/01/28 08:29:21;;;;;;;22.85;13.52;;;;;;;4.87;100.00;99585.78;5221764;28;20408;-79
2021/01/28 08:31:53;;;;;;;25.33;14.38;;;;;;;4.90;100.00;99585.69;5221176;28;20078;-79
2021/01/28 08:34:31;;;;;;;22.38;13.93;;;;;;;4.87;100.00;99582.34;5222410;28;20491;-79
2021/01/28 08:37:11;;;;;;;26.60;15.18;;;;;;;4.92;100.00;99583.06;5221877;28;20078;-79
2021/01/28 08:39:51;;;;;;;23.30;14.30;;;;;;;5.00;100.00;99579.34;5221564;28;20431;-78
2021/01/28 08:42:24;;;;;;;23.02;13.98;;;;;;;4.77;100.00;99592.09;5221808;28;20031;-79
2021/01/28 08:45:21;;;;;;;21.83;14.02;;;;;;;4.90;100.00;99584.84;5221076;28;20032;-79
2021/01/28 08:47:57;;;;;;;22.40;14.38;;;;;;;4.78;100.00;99578.28;5221892;28;20032;-79
2021/01/28 08:50:28;;;;;;;23.60;14.07;;;;;;;4.68;100.00;99573.41;5222614;28;20029;-78
2021/01/28 08:53:05;;;;;;;23.50;14.98;;;;;;;4.77;100.00;99571.41;5221912;28;20053;-79
2021/01/28 08:55:38;;;;;;;21.05;14.57;;;;;;;4.76;100.00;99569.72;5221013;28;20033;-79
2021/01/28 08:58:19;;;;;;;21.00;13.52;;;;;;;4.90;100.00;99572.75;5222061;28;20368;-79
2021/01/28 09:00:55;;;;;;;19.25;13.30;;;;;;;4.82;100.00;99569.53;5222355;28;20487;-79
2021/01/28 09:03:31;;;;;;;20.15;13.68;;;;;;;4.93;100.00;99574.38;5227774;28;20051;-79
2021/01/28 09:06:02;;;;;;;21.05;12.68;;;;;;;4.77;100.00;99579.16;5221572;28;20056;-79
2021/01/28 09:08:36;;;;;;;20.15;13.07;;;;;;;4.93;100.00;99570.06;5225749;28;20407;-79
2021/01/28 09:11:11;;;;;;;20.98;12.73;;;;;;;5.08;100.00;99563.59;5222051;28;20037;-79
2021/01/28 09:14:01;;;;;;;19.77;12.55;;;;;;;5.01;100.00;99559.50;5221567;28;20470;-79
2021/01/28 09:16:33;;;;;;;19.95;12.25;;;;;;;4.85;100.00;99559.13;5222116;28;20044;-79
2021/01/28 09:19:13;;;;;;;18.33;12.45;;;;;;;4.87;100.00;99554.75;5221333;28;20021;-79
2021/01/28 09:21:45;;;;;;;20.63;13.70;;;;;;;4.74;100.00;99558.56;5221604;28;20081;-79
2021/01/28 09:24:20;;;;;;;17.83;12.98;;;;;;;4.82;100.00;99551.41;5220827;28;20025;-79
2021/01/28 09:27:15;;;;;;;19.08;13.20;;;;;;;5.16;100.00;99552.09;5222491;28;20033;-79
2021/01/28 09:29:47;;;;;;;20.65;13.40;;;;;;;5.17;100.00;99545.22;5222646;28;20793;-79
2021/01/28 09:32:17;;;;;;;21.83;13.73;;;;;;;5.20;100.00;99535.63;5220538;28;20029;-79
2021/01/28 09:35:12;;;;;;;19.30;13.27;;;;;;;5.00;100.00;99532.75;5222115;28;20025;-80
2021/01/28 09:37:46;;;;;;;20.33;13.32;;;;;;;5.05;100.00;99530.91;5220491;28;20310;-79
2021/01/28 09:40:29;;;;;;;18.63;14.27;;;;;;;5.04;100.00;99524.03;5225586;28;20116;-78
2021/01/28 09:43:32;;;;;;;18.90;13.55;;;;;;;5.10;100.00;99528.16;5221868;28;20147;-80
2021/01/28 09:46:09;;;;;;;21.75;14.38;;;;;;;5.28;100.00;99512.03;5225231;28;20056;-78
2021/01/28 09:48:40;;;;;;;20.88;14.32;;;;;;;5.28;100.00;99509.44;5225346;28;20028;-80
2021/01/28 09:51:16;;;;;;;21.92;14.57;;;;;;;5.22;100.00;99500.16;5225496;28;20028;-78
2021/01/28 09:54:01;;;;;;;;;;;;;;;5.17;100.00;99508.97;5224817;28;20020;-79
2021/01/28 09:56:32;;;;;;;21.02;14.38;;;;;;;4.71;100.00;99496.56;5225551;28;20392;-81
2021/01/28 09:59:02;;;;;;;22.65;15.38;;;;;;;4.81;100.00;99497.13;5225336;28;20104;-81
2021/01/28 10:01:33;;;;;;;20.20;13.32;;;;;;;4.98;100.00;99492.28;5224958;28;20154;-81
2021/01/28 10:04:03;;;;;;;19.17;12.70;;;;;;;4.85;100.00;99491.81;5224005;28;20028;-79
2021/01/28 10:06:33;;;;;;;21.45;13.45;;;;;;;4.74;100.00;99493.00;5225435;28;20025;-80
2021/01/28 10:09:04;;;;;;;22.20;13.60;;;;;;;4.37;100.00;99490.66;5224977;28;20024;-80
2021/01/28 10:11:35;;;;;;;18.60;13.00;;;;;;;4.66;100.00;99482.88;5224898;28;20040;-81
2021/01/28 10:14:05;;;;;;;19.98;12.80;;;;;;;4.78;100.00;99487.72;5226521;28;20031;-81
2021/01/28 10:16:35;;;;;;;19.45;13.10;;;;;;;4.65;100.00;99478.59;5224643;28;20028;-81
2021/01/28 10:19:06;;;;;;;24.02;13.70;;;;;;;4.52;100.00;99479.00;5224913;28;20063;-81
2021/01/28 10:21:36;;;;;;;16.75;12.48;;;;;;;4.72;100.00;99482.72;5224341;28;20033;-82
2021/01/28 10:24:06;;;;;;;21.75;13.38;;;;;;;4.76;100.00;99476.56;5224405;28;20025;-81
2021/01/28 10:26:36;;;;;;;19.58;13.52;;;;;;;4.64;100.00;99473.50;5224183;28;20052;-80
2021/01/28 10:29:07;;;;;;;18.83;12.40;;;;;;;4.70;100.00;99474.16;5225000;28;20398;-81
2021/01/28 10:31:37;;;;;;;22.05;13.20;;;;;;;4.59;100.00;99460.69;5223904;28;20037;-80
2021/01/28 10:34:07;;;;;;;19.15;13.75;;;;;;;4.67;100.00;99468.22;5223589;28;20052;-79
2021/01/28 10:36:38;;;;;;;19.58;13.48;;;;;;;4.53;100.00;99468.63;5224591;28;20621;-79
2021/01/28 10:39:08;;;;;;;18.08;12.82;;;;;;;4.85;100.00;99460.78;5223312;28;20024;-79
2021/01/28 10:41:38;;;;;;;20.05;12.32;;;;;;;4.80;100.00;99462.63;5223788;28;20040;-81
2021/01/28 10:44:09;;;;;;;20.35;13.35;;;;;;;4.59;100.00;99468.44;5223684;28;20018;-79
2021/01/28 10:46:41;;;;;;;16.65;11.57;;;;;;;4.81;100.00;99455.72;5223152;28;20020;-78
2021/01/28 10:49:11;;;;;;;17.25;12.15;;;;;;;5.10;100.00;99456.50;5223282;28;20028;-80
2021/01/28 10:51:41;;;;;;;18.65;11.75;;;;;;;4.92;100.00;99457.09;5223689;28;20116;-79
2021/01/28 10:54:11;;;;;;;16.83;11.63;;;;;;;5.12;100.00;99452.13;5223352;28;20017;-83
2021/01/28 10:56:43;;;;;;;17.75;11.57;;;;;;;5.05;100.00;99450.63;5221979;28;20027;-82
2021/01/28 10:59:13;;;;;;;18.83;11.98;;;;;;;4.89;100.00;99446.84;5220780;28;20033;-80
2021/01/28 11:01:43;;;;;;;21.38;12.63;;;;;;;4.99;100.00;99443.03;5222285;28;20029;-80
2021/01/28 11:04:13;;;;;;;21.30;12.90;;;;;;;4.98;100.00;99440.53;5219610;28;20025;-79
2021/01/28 11:06:44;;;;;;;18.88;12.55;;;;;;;5.16;100.00;99435.59;5222355;28;20035;-80
2021/01/28 11:09:14;;;;;;;19.98;11.82;;;;;;;5.14;100.00;99436.56;5222205;28;20087;-81
2021/01/28 11:11:45;;;;;;;21.58;13.05;;;;;;;4.83;100.00;99434.06;5221808;28;20039;-81
2021/01/28 11:14:15;;;;;;;17.88;12.95;;;;;;;5.11;100.00;99432.31;5223280;28;20024;-79
2021/01/28 11:16:46;;;;;;;23.58;13.43;;;;;;;4.84;100.00;99434.91;5223403;28;20075;-78
2021/01/28 11:19:17;;;;;;;18.55;13.07;;;;;;;4.25;100.00;99434.09;5222987;28;20266;-81
2021/01/28 11:21:47;;;;;;;22.20;14.43;;;;;;;4.12;100.00;99426.75;5222661;28;20091;-82
2021/01/28 11:24:17;;;;;;;20.63;14.55;;;;;;;4.29;100.00;99427.94;5223242;28;20025;-80
2021/01/28 11:26:48;;;;;;;21.30;14.27;;;;;;;4.40;100.00;99417.28;5224233;28;20036;-79
2021/01/28 11:29:22;;;;;;;23.38;15.40;;;;;;;4.20;100.00;99417.03;5223777;28;20024;-80
2021/01/28 11:31:53;;;;;;;22.95;16.27;;;;;;;4.11;100.00;99412.13;5223434;28;20040;-80
2021/01/28 11:34:27;;;;;;;26.88;15.90;;;;;;;4.15;100.00;99408.56;5221315;28;20017;-79
2021/01/28 11:36:58;;;;;;;23.65;16.40;;;;;;;4.15;100.00;99399.06;5223957;28;20529;-81
2021/01/28 11:39:28;;;;;;;25.60;16.75;;;;;;;4.05;100.00;99392.47;5224590;28;20028;-80
2021/01/28 11:41:58;;;;;;;24.73;16.95;;;;;;;4.06;100.00;99391.59;5223847;28;20025;-79
2021/01/28 11:44:28;;;;;;;30.10;18.45;;;;;;;3.84;100.00;99387.91;5223539;28;20025;-79
2021/01/28 11:46:59;;;;;;;28.67;18.60;;;;;;;3.79;100.00;99387.16;5217317;28;20025;-79
2021/01/28 11:49:29;;;;;;;31.08;17.85;;;;;;;3.85;100.00;99381.84;5222564;28;20095;-79
2021/01/28 11:51:59;;;;;;;28.13;17.83;;;;;;;3.74;100.00;99375.25;5223198;28;20025;-80
2021/01/28 11:54:29;;;;;;;31.73;18.80;;;;;;;3.71;100.00;99370.19;5222780;28;20539;-80